createdAt,value
2017-09-23T00:04:05.707Z,23.8
2017-09-23T00:09:11.432Z,23.8
2017-09-23T00:14:16.159Z,23.8
2017-09-23T00:19:21.210Z,23.8
2017-09-23T00:24:26.274Z,23.8
2017-09-23T00:29:30.989Z,23.8
2017-09-23T00:34:36.045Z,23.8
2017-09-23T00:39:41.771Z,23.8
2017-09-23T00:44:47.166Z,23.8
2017-09-23T00:49:51.889Z,23.8
2017-09-23T00:54:57.282Z,23.8
2017-09-23T01:00:02.354Z,23.8
2017-09-23T01:05:08.331Z,23.8
2017-09-23T01:10:13.058Z,23.7
2017-09-23T01:15:18.448Z,23.7
2017-09-23T01:20:23.509Z,23.7
2017-09-23T01:25:28.573Z,23.7
2017-09-23T01:30:33.956Z,23.7
2017-09-23T01:35:39.685Z,23.7
2017-09-23T01:40:44.415Z,23.7
2017-09-23T01:46:18.654Z,23.7
2017-09-23T01:51:24.051Z,23.7
2017-09-23T01:56:29.441Z,23.7
2017-09-23T02:01:34.500Z,23.7
2017-09-23T02:06:39.561Z,23.6
2017-09-23T02:11:45.287Z,23.6
2017-09-23T02:16:51.016Z,23.6
2017-09-23T02:21:55.742Z,23.6
2017-09-23T02:27:01.132Z,23.6
2017-09-23T02:32:06.190Z,23.6
2017-09-23T02:37:10.575Z,23.6
2017-09-23T02:42:16.300Z,23.6
2017-09-23T02:47:21.692Z,23.6
2017-09-23T02:52:27.081Z,23.6
2017-09-23T02:57:31.803Z,23.6
2017-09-23T03:02:36.527Z,23.6
2017-09-23T03:07:41.260Z,23.5
2017-09-23T03:12:46.976Z,23.5
2017-09-23T03:17:52.706Z,23.5
2017-09-23T03:22:57.765Z,23.5
2017-09-23T03:28:03.493Z,23.5
2017-09-23T03:33:08.549Z,23.5
2017-09-23T03:38:14.278Z,23.5
2017-09-23T03:43:19.666Z,23.5
2017-09-23T03:48:25.064Z,23.5
2017-09-23T03:53:29.786Z,23.4
2017-09-23T03:58:34.508Z,23.5
2017-09-23T04:03:39.898Z,23.4
2017-09-23T04:08:45.339Z,23.4
2017-09-23T04:13:51.064Z,23.4
2017-09-23T04:18:56.125Z,23.4
2017-09-23T04:24:01.184Z,23.4
2017-09-23T04:29:05.910Z,23.4
2017-09-23T04:34:10.631Z,23.4
2017-09-23T04:39:15.358Z,23.4
2017-09-23T04:44:20.420Z,23.4
2017-09-23T04:49:25.474Z,23.4
2017-09-23T04:54:30.196Z,23.4
2017-09-23T04:59:35.252Z,23.4
2017-09-23T05:04:40.646Z,23.4
2017-09-23T05:09:45.703Z,23.4
2017-09-23T05:14:51.091Z,23.3
2017-09-23T05:19:56.483Z,23.3
2017-09-23T05:25:01.875Z,23.3
2017-09-23T05:30:07.272Z,23.3
2017-09-23T05:35:11.992Z,23.3
2017-09-23T05:40:17.385Z,23.3
2017-09-23T05:45:23.116Z,23.3
2017-09-23T05:50:28.171Z,23.3
2017-09-23T05:55:33.231Z,23.3
2017-09-23T06:00:38.293Z,23.3
2017-09-23T06:05:43.347Z,23.3
2017-09-23T06:10:48.737Z,23.3
2017-09-23T06:15:53.461Z,23.3
2017-09-23T06:20:57.847Z,23.4
2017-09-23T06:26:02.908Z,23.4
2017-09-23T06:31:07.634Z,23.4
2017-09-23T06:36:12.353Z,23.4
2017-09-23T06:41:17.747Z,23.4
2017-09-23T06:46:23.473Z,23.5
2017-09-23T06:51:28.868Z,23.5
2017-09-23T06:56:33.930Z,23.5
2017-09-23T07:01:38.992Z,23.6
2017-09-23T07:06:43.727Z,23.6
2017-09-23T07:11:49.133Z,23.7
2017-09-23T07:16:54.523Z,23.8
2017-09-23T07:22:00.256Z,23.8
2017-09-23T07:27:05.989Z,23.9
2017-09-23T07:32:10.384Z,23.9
2017-09-23T07:37:15.445Z,24
2017-09-23T07:42:20.179Z,24.1
2017-09-23T07:47:25.242Z,24.1
2017-09-23T07:52:30.304Z,24.2
2017-09-23T07:57:35.369Z,24.3
2017-09-23T08:02:40.435Z,24.4
2017-09-23T08:07:45.513Z,24.5
2017-09-23T08:12:50.915Z,24.7
2017-09-23T08:17:55.986Z,24.7
2017-09-23T08:23:00.737Z,24.8
2017-09-23T08:28:05.806Z,24.8
2017-09-23T08:33:11.213Z,24.8
2017-09-23T08:38:16.622Z,24.9
2017-09-23T08:43:21.703Z,24.9
2017-09-23T08:48:27.111Z,24.9
2017-09-23T08:53:32.539Z,24.8
2017-09-23T08:58:38.608Z,24.8
2017-09-23T09:03:44.009Z,24.7
2017-09-23T09:08:49.075Z,24.7
2017-09-23T09:13:55.149Z,24.7
2017-09-23T09:19:00.226Z,24.7
2017-09-23T09:24:05.292Z,24.7
2017-09-23T09:29:09.691Z,24.7
2017-09-23T09:34:14.759Z,24.8
2017-09-23T09:39:19.158Z,24.8
2017-09-23T09:44:24.566Z,24.9
2017-09-23T09:49:29.969Z,25
2017-09-23T09:54:35.042Z,25.1
2017-09-23T09:59:40.476Z,25.1
2017-09-23T10:04:46.253Z,25.1
2017-09-23T10:09:51.664Z,25.2
2017-09-23T10:14:57.396Z,25.2
2017-09-23T10:20:01.798Z,25.1
2017-09-23T10:25:07.536Z,25.1
2017-09-23T10:30:12.271Z,25.1
2017-09-23T10:35:17.008Z,25.1
2017-09-23T10:40:22.413Z,25.1
2017-09-23T10:45:27.485Z,25.1
2017-09-23T10:50:32.566Z,25.1
2017-09-23T10:55:37.338Z,25.1
2017-09-23T11:00:42.396Z,25
2017-09-23T11:05:47.801Z,25
2017-09-23T11:10:53.203Z,25
2017-09-23T11:15:58.628Z,25
2017-09-23T11:21:04.063Z,25
2017-09-23T11:26:08.806Z,25
2017-09-23T11:31:13.872Z,25.1
2017-09-23T11:36:18.277Z,25.1
2017-09-23T11:41:24.023Z,25.1
2017-09-23T11:46:29.450Z,25.1
2017-09-23T11:51:35.232Z,25.1
2017-09-23T11:56:40.304Z,25.1
2017-09-23T12:01:45.089Z,25.1
2017-09-23T12:06:49.850Z,25.1
2017-09-23T12:11:54.649Z,25.1
2017-09-23T12:16:59.822Z,25
2017-09-23T12:22:05.048Z,25
2017-09-23T12:27:10.188Z,25
2017-09-23T12:32:15.320Z,25.1
2017-09-23T12:37:20.779Z,25
2017-09-23T12:42:25.555Z,25
2017-09-23T12:47:30.384Z,25
2017-09-23T12:52:35.882Z,25
2017-09-23T12:57:40.973Z,25.1
2017-09-23T13:02:45.771Z,25.1
2017-09-23T13:07:51.264Z,25.1
2017-09-23T13:12:56.396Z,25.1
2017-09-23T13:18:00.860Z,25.1
2017-09-23T13:23:06.031Z,25.1
2017-09-23T13:28:10.846Z,25.1
2017-09-23T13:33:16.195Z,25.1
2017-09-23T13:38:21.659Z,25
2017-09-23T13:43:26.494Z,25
2017-09-23T13:48:31.667Z,25
2017-09-23T13:53:36.492Z,25
2017-09-23T13:58:41.988Z,25
2017-09-23T14:03:47.504Z,25
2017-09-23T14:08:52.634Z,25
2017-09-23T14:13:57.741Z,25
2017-09-23T14:19:03.166Z,25
2017-09-23T14:24:08.290Z,25
2017-09-23T14:29:13.062Z,25
2017-09-23T14:34:17.857Z,24.9
2017-09-23T14:39:22.961Z,24.9
2017-09-23T14:44:28.060Z,24.9
2017-09-23T14:49:33.152Z,24.9
2017-09-23T14:54:38.938Z,24.9
2017-09-23T14:59:43.699Z,24.9
2017-09-23T15:04:49.139Z,24.9
2017-09-23T15:09:55.242Z,24.9
2017-09-23T15:15:00.673Z,24.9
2017-09-23T15:20:05.791Z,24.8
2017-09-23T15:25:10.908Z,24.8
2017-09-23T15:30:16.355Z,24.8
2017-09-23T15:35:21.121Z,24.8
2017-09-23T15:40:26.208Z,24.8
2017-09-23T15:45:31.320Z,24.8
2017-09-23T15:50:35.801Z,24.8
2017-09-23T15:55:40.559Z,24.8
2017-09-23T16:00:45.684Z,24.7
2017-09-23T16:05:51.091Z,24.7
2017-09-23T16:10:56.161Z,24.7
2017-09-23T16:16:01.239Z,24.7
2017-09-23T16:21:06.645Z,24.7
2017-09-23T16:26:11.707Z,24.7
2017-09-23T16:31:17.442Z,24.7
2017-09-23T16:36:23.197Z,24.7
2017-09-23T16:41:28.280Z,24.6
2017-09-23T16:46:33.001Z,24.6
2017-09-23T16:51:38.732Z,24.6
2017-09-23T16:56:44.143Z,24.6
2017-09-23T17:01:49.221Z,24.6
2017-09-23T17:06:54.956Z,24.6
2017-09-23T17:12:01.028Z,24.6
2017-09-23T17:17:06.762Z,24.6
2017-09-23T17:22:11.824Z,24.6
2017-09-23T17:27:16.931Z,24.5
2017-09-23T17:32:21.657Z,24.5
2017-09-23T17:37:25.720Z,24.5
2017-09-23T17:42:31.130Z,24.5
2017-09-23T17:47:36.531Z,24.5
2017-09-23T17:52:41.928Z,24.5
2017-09-23T17:57:47.666Z,24.5
2017-09-23T18:02:53.063Z,24.5
2017-09-23T18:07:58.130Z,24.5
2017-09-23T18:13:03.869Z,24.5
2017-09-23T18:18:08.606Z,24.4
2017-09-23T18:23:13.352Z,24.4
2017-09-23T18:28:19.097Z,24.4
2017-09-23T18:33:23.832Z,24.4
2017-09-23T18:38:29.227Z,24.4
2017-09-23T18:43:34.291Z,24.4
2017-09-23T18:48:39.360Z,24.4
2017-09-23T18:53:44.424Z,24.4
2017-09-23T18:58:49.163Z,24.4
2017-09-23T19:03:54.562Z,24.4
2017-09-23T19:08:59.959Z,24.4
2017-09-23T19:14:05.360Z,24.4
2017-09-23T19:19:11.430Z,24.4
2017-09-23T19:24:17.497Z,24.4
2017-09-23T19:29:22.898Z,24.4
2017-09-23T19:34:28.637Z,24.4
2017-09-23T19:39:34.380Z,24.4
2017-09-23T19:44:39.458Z,24.4
2017-09-23T19:49:44.855Z,24.4
2017-09-23T19:54:49.925Z,24.4
2017-09-23T19:59:55.330Z,24.4
2017-09-23T20:05:00.085Z,24.4
2017-09-23T20:10:05.797Z,24.3
2017-09-23T20:15:11.197Z,24.3
2017-09-23T20:20:15.930Z,24.3
2017-09-23T20:25:20.669Z,24.3
2017-09-23T20:30:25.731Z,24.3
2017-09-23T20:35:30.797Z,24.3
2017-09-23T20:40:36.202Z,24.3
2017-09-23T20:45:41.603Z,24.3
2017-09-23T20:50:46.331Z,24.3
2017-09-23T20:55:52.133Z,24.3
2017-09-23T21:00:57.224Z,24.3
2017-09-23T21:06:01.954Z,24.3
2017-09-23T21:11:07.696Z,24.3
2017-09-23T21:16:13.788Z,24.3
2017-09-23T21:21:19.526Z,24.3
2017-09-23T21:26:24.695Z,24.2
2017-09-23T21:31:30.123Z,24.2
2017-09-23T21:36:35.207Z,24.2
2017-09-23T21:41:40.942Z,24.2
2017-09-23T21:46:45.668Z,24.2
2017-09-23T21:51:50.953Z,24.2
2017-09-23T21:56:56.013Z,24.2
2017-09-23T22:02:01.074Z,24.2
2017-09-23T22:07:06.131Z,24.2
2017-09-23T22:12:10.855Z,24.2
2017-09-23T22:17:15.922Z,24.2
2017-09-23T22:22:21.314Z,24.2
2017-09-23T22:27:27.044Z,24.2
2017-09-23T22:32:32.775Z,24.1
2017-09-23T22:37:36.831Z,24.1
2017-09-23T22:42:41.562Z,24.1
2017-09-23T22:47:47.836Z,24.1
2017-09-23T22:52:52.458Z,24.1
2017-09-23T22:57:57.194Z,24.1
2017-09-23T23:03:01.583Z,24.1
2017-09-23T23:08:06.326Z,24.1
2017-09-23T23:13:11.717Z,24.1
2017-09-23T23:18:17.113Z,24.1
2017-09-23T23:23:22.509Z,24.1
2017-09-23T23:28:27.235Z,24.1
2017-09-23T23:33:31.959Z,24.1
2017-09-23T23:38:37.687Z,24.1
2017-09-23T23:43:43.081Z,24.1
2017-09-23T23:48:48.476Z,24.1
2017-09-23T23:53:53.870Z,24.1
2017-09-23T23:58:58.958Z,24.1
